KCDH/CDH METAR and TAF weather

Enter ICAO airport designator
Station Type Date Time Source
KCDH METAR 2022/08/12 15:55 UTC NOAA

KCDH 121555Z AUTO 06009KT 10SM SCT024 31/26 A3007 RMK AO2


Station Type Date Time Source
KCDH Decoded METAR 2022/08/12 15:55 UTC NOAA

Camden / Harrell Field, AR, United States (KCDH) 33-37N 092-46W
Aug 12, 2022 - 11:55 AM EDT / 2022.08.12 1555 UTC
Wind: from the ENE (060 degrees) at 10 MPH (9 KT):0
Visibility: 10 mile(s):0
Sky conditions: partly cloudy
Temperature: 87 F (31 C)
Heat index: 99.7 F (37.6 C):1
Dew Point: 78 F (26 C)
Relative Humidity: 74%
Pressure (altimeter): 30.07 in. Hg (1018 hPa)
ob: KCDH 121555Z AUTO 06009KT 10SM SCT024 31/26 A3007 RMK AO2
cycle: 16

Station Type Date Time Source
KCDH TAF UTC NOAA

Error!

Example: see airport list